createdAt,value
2019-05-02T00:01:15.460Z,100839.03
2019-05-02T00:03:46.841Z,100833.88
2019-05-02T00:06:19.152Z,100833.88
2019-05-02T00:08:52.089Z,100832.42
2019-05-02T00:11:24.207Z,100823.80
2019-05-02T00:13:55.227Z,100829.22
2019-05-02T00:16:27.347Z,100829.13
2019-05-02T00:18:59.513Z,100830.91
2019-05-02T00:21:32.893Z,100827.22
2019-05-02T00:24:04.235Z,100824.42
2019-05-02T00:26:35.866Z,100821.25
2019-05-02T00:29:09.795Z,100820.22
2019-05-02T00:31:41.959Z,100825.67
2019-05-02T00:34:11.981Z,100828.92
2019-05-02T00:36:46.804Z,100826.58
2019-05-02T00:39:18.475Z,100831.78
2019-05-02T00:41:50.007Z,100827.09
2019-05-02T00:44:22.347Z,100828.66
2019-05-02T00:46:56.648Z,100818.35
2019-05-02T00:49:30.747Z,100821.38
2019-05-02T00:52:07.806Z,100822.63
2019-05-02T00:54:38.013Z,100819.01
2019-05-02T00:57:14.976Z,100821.55
2019-05-02T00:59:45.588Z,100817.31
2019-05-02T01:02:41.864Z,100813.15
2019-05-02T01:05:15.320Z,100811.04
2019-05-02T01:07:47.183Z,100807.05
2019-05-02T01:10:21.347Z,100810.83
2019-05-02T01:12:51.047Z,100800.34
2019-05-02T01:15:21.304Z,100804.58
2019-05-02T01:17:53.270Z,100793.36
2019-05-02T01:20:27.724Z,100794.70
2019-05-02T01:22:57.615Z,100793.45
2019-05-02T01:25:28.207Z,100790.95
2019-05-02T01:28:18.835Z,100789.50
2019-05-02T01:31:28.288Z,100789.00
2019-05-02T01:34:27.601Z,100789.29
2019-05-02T01:37:05.318Z,100784.77
2019-05-02T01:39:37.965Z,100782.23
2019-05-02T01:42:09.906Z,100783.28
2019-05-02T01:44:43.515Z,100770.80
2019-05-02T01:47:14.021Z,100782.31
2019-05-02T01:49:46.119Z,100779.48
2019-05-02T01:55:17.094Z,100787.02
2019-05-02T01:57:50.066Z,100780.07
2019-05-02T02:00:21.591Z,100784.52
2019-05-02T02:02:53.807Z,100786.93
2019-05-02T02:05:27.652Z,100781.78
2019-05-02T02:07:57.440Z,100780.69
2019-05-02T02:10:29.497Z,100782.36
2019-05-02T02:13:04.701Z,100781.70
2019-05-02T02:15:33.766Z,100781.11
2019-05-02T02:18:05.191Z,100784.27
2019-05-02T02:20:52.166Z,100787.34
2019-05-02T02:23:31.954Z,100782.48
2019-05-02T02:26:11.402Z,100788.95
2019-05-02T02:28:39.529Z,100784.71
2019-05-02T02:31:13.067Z,100784.88
2019-05-02T02:33:48.114Z,100782.06
2019-05-02T02:36:16.413Z,100787.16
2019-05-02T02:38:47.727Z,100776.22
2019-05-02T02:41:22.574Z,100774.20
2019-05-02T02:44:13.195Z,100775.48
2019-05-02T02:46:45.450Z,100774.50
2019-05-02T02:49:21.237Z,100769.88
2019-05-02T02:51:50.935Z,100771.58
2019-05-02T02:54:22.681Z,100769.72
2019-05-02T02:56:56.166Z,100774.09
2019-05-02T02:59:28.194Z,100776.02
2019-05-02T03:02:08.983Z,100769.42
2019-05-02T03:04:33.435Z,100764.52
2019-05-02T03:07:08.047Z,100766.34
2019-05-02T03:09:40.804Z,100764.19
2019-05-02T03:12:29.091Z,100766.69
2019-05-02T03:15:03.127Z,100760.20
2019-05-02T03:17:34.869Z,100758.80
2019-05-02T03:20:06.775Z,100753.84
2019-05-02T03:22:41.867Z,100752.44
2019-05-02T03:25:18.372Z,100757.75
2019-05-02T03:27:48.813Z,100761.70
2019-05-02T03:30:32.259Z,100760.58
2019-05-02T03:33:06.452Z,100757.03
2019-05-02T03:35:41.885Z,100749.64
2019-05-02T03:38:03.857Z,100754.22
2019-05-02T03:40:39.077Z,100745.13
2019-05-02T03:43:11.259Z,100745.50
2019-05-02T03:45:43.191Z,100745.58
2019-05-02T03:48:18.457Z,100747.28
2019-05-02T03:50:46.450Z,100739.18
2019-05-02T03:53:25.061Z,100737.02
2019-05-02T03:55:53.911Z,100740.33
2019-05-02T03:58:26.956Z,100732.48
2019-05-02T04:01:02.080Z,100735.39
2019-05-02T04:03:33.849Z,100735.76
2019-05-02T04:06:05.126Z,100738.25
2019-05-02T04:08:37.312Z,100737.63
2019-05-02T04:11:26.529Z,100734.77
2019-05-02T04:13:58.485Z,100736.51
2019-05-02T04:16:31.010Z,100733.80
2019-05-02T04:19:07.333Z,100731.37
2019-05-02T04:21:39.719Z,100729.34
2019-05-02T04:24:15.678Z,100732.25
2019-05-02T04:26:54.299Z,100726.33
2019-05-02T04:29:24.436Z,100730.23
2019-05-02T04:31:56.422Z,100729.17
2019-05-02T04:34:27.075Z,100732.06
2019-05-02T04:37:01.177Z,100729.75
2019-05-02T04:39:31.487Z,100743.13
2019-05-02T04:42:11.628Z,100733.76
2019-05-02T04:44:46.348Z,100747.88
2019-05-02T04:47:17.490Z,100737.84
2019-05-02T04:49:51.860Z,100741.34
2019-05-02T04:52:21.388Z,100742.79
2019-05-02T04:55:08.002Z,100740.11
2019-05-02T04:57:36.855Z,100740.05
2019-05-02T05:00:08.453Z,100737.33
2019-05-02T05:02:39.965Z,100732.80
2019-05-02T05:05:10.563Z,100738.96
2019-05-02T05:07:46.255Z,100742.13
2019-05-02T05:10:14.617Z,100738.27
2019-05-02T05:12:48.011Z,100748.06
2019-05-02T05:15:35.823Z,100749.69
2019-05-02T05:17:53.622Z,100746.70
2019-05-02T05:20:25.106Z,100743.69
2019-05-02T05:22:58.746Z,100751.85
2019-05-02T05:25:37.919Z,100750.88
2019-05-02T05:28:09.040Z,100756.15
2019-05-02T05:30:45.317Z,100756.28
2019-05-02T05:33:13.473Z,100752.93
2019-05-02T05:35:48.756Z,100754.95
2019-05-02T05:38:22.944Z,100747.01
2019-05-02T05:40:55.376Z,100760.27
2019-05-02T05:43:27.540Z,100758.44
2019-05-02T05:46:09.241Z,100752.69
2019-05-02T05:48:37.139Z,100754.45
2019-05-02T05:51:07.263Z,100753.00
2019-05-02T05:53:37.859Z,100752.13
2019-05-02T05:56:11.448Z,100746.03
2019-05-02T05:58:48.153Z,100754.39
2019-05-02T06:01:20.355Z,100756.92
2019-05-02T06:03:52.594Z,100760.11
2019-05-02T06:06:24.577Z,100753.51
2019-05-02T06:09:01.538Z,100763.48
2019-05-02T06:11:33.139Z,100759.60
2019-05-02T06:14:03.333Z,100754.43
2019-05-02T06:16:35.589Z,100755.66
2019-05-02T06:19:06.510Z,100750.08
2019-05-02T06:21:39.975Z,100755.95
2019-05-02T06:24:10.922Z,100756.80
2019-05-02T06:26:44.664Z,100755.63
2019-05-02T06:29:18.728Z,100757.05
2019-05-02T06:31:52.954Z,100754.22
2019-05-02T06:34:23.152Z,100752.64
2019-05-02T06:36:53.331Z,100760.41
2019-05-02T06:39:31.528Z,100753.00
2019-05-02T06:42:01.585Z,100752.73
2019-05-02T06:44:32.661Z,100751.87
2019-05-02T06:47:05.729Z,100749.21
2019-05-02T06:49:38.482Z,100752.33
2019-05-02T06:52:10.483Z,100752.16
2019-05-02T06:54:41.684Z,100752.37
2019-05-02T06:57:19.132Z,100749.65
2019-05-02T06:59:54.660Z,100742.19
2019-05-02T07:02:28.308Z,100736.39
2019-05-02T07:05:00.817Z,100745.34
2019-05-02T07:07:37.107Z,100739.48
2019-05-02T07:10:09.209Z,100745.13
2019-05-02T07:12:46.138Z,100739.81
2019-05-02T07:15:43.477Z,100733.53
2019-05-02T07:18:15.066Z,100739.50
2019-05-02T07:20:47.306Z,100736.97
2019-05-02T07:23:18.371Z,100741.08
2019-05-02T07:25:53.026Z,100736.97
2019-05-02T07:28:28.947Z,100736.81
2019-05-02T07:31:00.320Z,100733.83
2019-05-02T07:33:37.013Z,100735.77
2019-05-02T07:36:05.933Z,100727.59
2019-05-02T07:38:36.542Z,100734.59
2019-05-02T07:41:08.333Z,100734.34
2019-05-02T07:43:40.748Z,100740.11
2019-05-02T07:46:16.273Z,100737.78
2019-05-02T07:48:49.044Z,100741.34
2019-05-02T07:51:21.261Z,100742.55
2019-05-02T07:53:55.491Z,100748.28
2019-05-02T07:56:27.930Z,100750.35
2019-05-02T07:59:04.601Z,100747.74
2019-05-02T08:01:36.971Z,100745.91
2019-05-02T08:04:11.326Z,100736.46
2019-05-02T08:06:44.652Z,100731.95
2019-05-02T08:09:16.338Z,100743.31
2019-05-02T08:11:49.715Z,100735.00
2019-05-02T08:14:24.237Z,100744.80
2019-05-02T08:17:05.289Z,100741.55
2019-05-02T08:19:49.969Z,100739.48
2019-05-02T08:22:24.558Z,100737.00
2019-05-02T08:24:55.878Z,100743.59
2019-05-02T08:27:41.465Z,100744.98
2019-05-02T08:30:24.955Z,100746.98
2019-05-02T08:33:01.467Z,100739.85
2019-05-02T08:35:32.758Z,100735.98
2019-05-02T08:38:03.938Z,100734.23
2019-05-02T08:40:34.435Z,100740.35
2019-05-02T08:43:09.006Z,100738.25
2019-05-02T08:45:39.619Z,100736.00
2019-05-02T08:48:12.802Z,100738.56
2019-05-02T08:50:43.373Z,100737.52
2019-05-02T08:53:19.679Z,100741.28
2019-05-02T08:55:47.726Z,100739.77
2019-05-02T08:58:18.828Z,100732.52
2019-05-02T09:00:50.496Z,100728.20
2019-05-02T09:03:25.491Z,100735.23
2019-05-02T09:06:05.506Z,100719.19
2019-05-02T09:08:30.868Z,100734.20
2019-05-02T09:11:02.722Z,100738.11
2019-05-02T09:13:34.868Z,100733.62
2019-05-02T09:16:06.126Z,100747.48
2019-05-02T09:18:50.519Z,100736.30
2019-05-02T09:21:16.821Z,100736.11
2019-05-02T09:23:51.740Z,100737.05
2019-05-02T09:26:35.202Z,100728.25
2019-05-02T09:29:01.686Z,100727.96
2019-05-02T09:31:36.819Z,100725.66
2019-05-02T09:34:08.759Z,100723.23
2019-05-02T09:36:38.951Z,100717.88
2019-05-02T09:39:13.003Z,100721.79
2019-05-02T09:41:45.644Z,100708.64
2019-05-02T09:44:18.743Z,100706.62
2019-05-02T09:46:53.109Z,100707.97
2019-05-02T09:49:22.060Z,100695.05
2019-05-02T09:51:59.227Z,100696.48
2019-05-02T09:54:27.087Z,100698.52
2019-05-02T09:56:57.865Z,100693.80
2019-05-02T09:59:33.429Z,100689.30
2019-05-02T10:02:09.381Z,100694.54
2019-05-02T10:04:44.117Z,100681.67
2019-05-02T10:07:15.947Z,100681.67
2019-05-02T10:09:49.381Z,100683.14
2019-05-02T10:12:22.983Z,100672.69
2019-05-02T10:14:55.255Z,100665.45
2019-05-02T10:17:27.958Z,100664.31
2019-05-02T10:19:59.281Z,100664.31
2019-05-02T10:22:32.321Z,100662.75
2019-05-02T10:25:04.192Z,100663.28
2019-05-02T10:27:38.461Z,100654.48
2019-05-02T10:30:14.831Z,100658.16
2019-05-02T10:32:47.155Z,100660.77
2019-05-02T10:35:19.555Z,100657.64
2019-05-02T10:37:49.719Z,100650.23
2019-05-02T10:40:22.528Z,100651.86
2019-05-02T10:42:54.106Z,100650.99
2019-05-02T10:45:25.598Z,100648.72
2019-05-02T10:47:57.767Z,100641.12
2019-05-02T10:50:36.295Z,100631.89
2019-05-02T10:53:11.876Z,100637.33
2019-05-02T10:55:43.232Z,100629.81
2019-05-02T10:58:14.441Z,100636.30
2019-05-02T11:00:45.591Z,100625.92
2019-05-02T11:03:46.190Z,100616.48
2019-05-02T11:06:12.594Z,100616.97
2019-05-02T11:08:46.113Z,100609.18
2019-05-02T11:11:21.918Z,100608.02
2019-05-02T11:14:05.602Z,100604.50
2019-05-02T11:16:43.914Z,100612.70
2019-05-02T11:19:33.884Z,100599.87
2019-05-02T11:22:06.979Z,100599.69
2019-05-02T11:24:41.700Z,100589.17
2019-05-02T11:27:14.627Z,100586.41
2019-05-02T11:29:46.699Z,100586.16
2019-05-02T11:32:16.987Z,100591.97
2019-05-02T11:34:48.214Z,100584.34
2019-05-02T11:37:19.429Z,100582.84
2019-05-02T11:40:04.463Z,100578.00
2019-05-02T11:42:34.349Z,100578.09
2019-05-02T11:45:05.980Z,100575.17
2019-05-02T11:47:37.047Z,100572.84
2019-05-02T11:50:08.735Z,100571.38
2019-05-02T11:52:39.319Z,100568.29
2019-05-02T11:55:13.099Z,100569.06
2019-05-02T11:57:45.023Z,100567.79
2019-05-02T12:00:17.677Z,100568.34
2019-05-02T12:02:58.579Z,100562.87
2019-05-02T12:05:39.180Z,100558.80
2019-05-02T12:08:12.328Z,100562.21
2019-05-02T12:10:42.980Z,100561.34
2019-05-02T12:13:16.111Z,100559.45
2019-05-02T12:15:51.888Z,100558.97
2019-05-02T12:18:25.626Z,100555.71
2019-05-02T12:20:57.186Z,100547.20
2019-05-02T12:23:27.737Z,100552.80
2019-05-02T12:26:05.978Z,100551.58
2019-05-02T12:28:38.992Z,100547.50
2019-05-02T12:31:22.691Z,100548.19
2019-05-02T12:33:53.532Z,100545.89
2019-05-02T12:36:27.207Z,100539.77
2019-05-02T12:38:58.298Z,100537.91
2019-05-02T12:41:28.905Z,100538.17
2019-05-02T12:43:59.106Z,100535.96
2019-05-02T12:46:33.101Z,100536.98
2019-05-02T12:49:03.945Z,100533.05
2019-05-02T12:51:34.211Z,100528.27
2019-05-02T12:54:05.551Z,100525.52
2019-05-02T12:56:37.034Z,100523.20
2019-05-02T12:59:08.188Z,100515.44
2019-05-02T13:01:42.026Z,100517.38
2019-05-02T13:04:14.176Z,100510.38
2019-05-02T13:06:46.252Z,100511.04
2019-05-02T13:09:17.190Z,100506.67
2019-05-02T13:12:02.799Z,100501.20
2019-05-02T13:14:33.283Z,100500.28
2019-05-02T13:17:05.953Z,100498.55
2019-05-02T13:19:41.222Z,100488.98
2019-05-02T13:22:21.800Z,100487.02
2019-05-02T13:24:58.338Z,100492.09
2019-05-02T13:27:32.210Z,100481.98
2019-05-02T13:30:03.408Z,100478.54
2019-05-02T13:32:42.687Z,100482.87
2019-05-02T13:35:26.237Z,100473.52
2019-05-02T13:37:59.906Z,100466.27
2019-05-02T13:40:35.882Z,100462.36
2019-05-02T13:43:07.405Z,100460.39
2019-05-02T13:46:09.380Z,100457.08
2019-05-02T13:48:43.025Z,100447.24
2019-05-02T13:51:14.589Z,100448.48
2019-05-02T13:53:57.300Z,100446.83
2019-05-02T13:56:46.291Z,100444.31
2019-05-02T13:59:18.738Z,100444.49
2019-05-02T14:01:52.202Z,100430.31
2019-05-02T14:04:24.147Z,100427.59
2019-05-02T14:06:58.960Z,100438.41
2019-05-02T14:09:53.046Z,100432.30
2019-05-02T14:12:46.651Z,100426.53
2019-05-02T14:15:22.120Z,100429.34
2019-05-02T14:17:56.351Z,100415.61
2019-05-02T14:20:28.757Z,100429.09
2019-05-02T14:23:02.270Z,100417.14
2019-05-02T14:25:34.480Z,100407.09
2019-05-02T14:28:08.233Z,100410.92
2019-05-02T14:30:41.962Z,100409.55
2019-05-02T14:33:19.958Z,100404.53
2019-05-02T14:35:54.308Z,100406.63
2019-05-02T14:38:32.076Z,100402.33
2019-05-02T14:41:15.901Z,100398.58
2019-05-02T14:44:05.215Z,100390.23
2019-05-02T14:46:39.263Z,100391.02
2019-05-02T14:49:07.054Z,100384.06
2019-05-02T14:51:37.745Z,100387.61
2019-05-02T14:54:11.923Z,100390.39
2019-05-02T14:57:01.966Z,100389.39
2019-05-02T14:59:33.363Z,100394.13
2019-05-02T15:02:07.949Z,100392.86
2019-05-02T15:04:44.597Z,100386.45
2019-05-02T15:07:17.667Z,100386.22
2019-05-02T15:09:47.697Z,100389.34
2019-05-02T15:12:19.235Z,100391.99
2019-05-02T15:14:57.504Z,100389.53
2019-05-02T15:17:28.055Z,100386.68
2019-05-02T15:19:58.227Z,100380.95
2019-05-02T15:22:33.095Z,100392.63
2019-05-02T15:25:07.891Z,100389.63
2019-05-02T15:27:41.986Z,100386.19
2019-05-02T15:30:09.924Z,100384.50
2019-05-02T15:32:52.779Z,100381.30
2019-05-02T15:35:52.719Z,100382.13
2019-05-02T15:38:27.998Z,100377.66
2019-05-02T15:41:06.976Z,100385.70
2019-05-02T15:43:39.299Z,100379.72
2019-05-02T15:46:15.662Z,100377.88
2019-05-02T15:48:43.809Z,100376.91
2019-05-02T15:51:14.444Z,100376.99
2019-05-02T15:54:05.381Z,100378.05
2019-05-02T15:56:27.727Z,100374.84
2019-05-02T15:59:04.230Z,100378.86
2019-05-02T16:01:53.335Z,100381.39
2019-05-02T16:04:26.939Z,100375.05
2019-05-02T16:07:06.777Z,100383.88
2019-05-02T16:09:37.301Z,100395.73
2019-05-02T16:12:08.435Z,100406.65
2019-05-02T16:14:42.706Z,100407.11
2019-05-02T16:17:17.700Z,100415.22
2019-05-02T16:19:58.647Z,100418.27
2019-05-02T16:22:26.367Z,100424.38
2019-05-02T16:25:01.635Z,100418.92
2019-05-02T16:27:47.057Z,100415.59
2019-05-02T16:30:22.338Z,100421.98
2019-05-02T16:32:59.268Z,100419.55
2019-05-02T16:35:33.108Z,100422.44
2019-05-02T16:38:04.367Z,100427.48
2019-05-02T16:40:35.688Z,100432.86
2019-05-02T16:43:12.195Z,100434.02
2019-05-02T16:45:43.935Z,100427.42
2019-05-02T16:48:15.654Z,100432.92
2019-05-02T16:50:46.233Z,100434.61
2019-05-02T16:53:17.147Z,100426.96
2019-05-02T16:55:49.741Z,100437.06
2019-05-02T16:58:21.354Z,100437.06
2019-05-02T17:00:58.037Z,100436.61
2019-05-02T17:03:28.649Z,100443.83
2019-05-02T17:06:01.664Z,100444.28
2019-05-02T17:08:57.344Z,100440.08
2019-05-02T17:11:35.961Z,100436.39
2019-05-02T17:14:11.990Z,100441.14
2019-05-02T17:16:47.075Z,100446.14
2019-05-02T17:19:26.115Z,100438.30
2019-05-02T17:21:57.395Z,100443.49
2019-05-02T17:24:28.750Z,100437.66
2019-05-02T17:27:03.489Z,100442.10
2019-05-02T17:29:35.137Z,100441.81
2019-05-02T17:32:08.928Z,100443.55
2019-05-02T17:34:42.556Z,100438.92
2019-05-02T17:37:14.037Z,100442.68
2019-05-02T17:39:47.513Z,100444.92
2019-05-02T17:42:22.355Z,100442.39
2019-05-02T17:44:51.813Z,100443.69
2019-05-02T17:47:23.248Z,100441.52
2019-05-02T17:49:57.014Z,100448.39
2019-05-02T17:52:50.552Z,100450.52
2019-05-02T17:55:21.494Z,100448.25
2019-05-02T17:57:54.792Z,100449.19
2019-05-02T18:00:30.029Z,100461.86
2019-05-02T18:03:02.519Z,100454.27
2019-05-02T18:05:35.671Z,100461.34
2019-05-02T18:08:10.967Z,100456.98
2019-05-02T18:10:41.805Z,100463.20
2019-05-02T18:13:17.559Z,100461.86
2019-05-02T18:15:50.524Z,100467.03
2019-05-02T18:18:24.249Z,100470.03
2019-05-02T18:20:55.659Z,100477.41
2019-05-02T18:23:28.810Z,100468.88
2019-05-02T18:26:04.411Z,100476.91
2019-05-02T18:28:47.045Z,100472.88
2019-05-02T18:31:17.319Z,100472.66
2019-05-02T18:33:48.019Z,100467.17
2019-05-02T18:36:23.903Z,100474.31
2019-05-02T18:38:54.252Z,100473.69
2019-05-02T18:41:23.006Z,100472.22
2019-05-02T18:43:55.084Z,100482.91
2019-05-02T18:46:25.649Z,100485.51
2019-05-02T18:48:58.324Z,100483.13
2019-05-02T18:51:32.079Z,100488.25
2019-05-02T18:54:07.356Z,100483.77
2019-05-02T18:56:42.828Z,100486.97
2019-05-02T18:59:14.154Z,100492.95
2019-05-02T19:01:47.417Z,100492.89
2019-05-02T19:04:17.163Z,100489.20
2019-05-02T19:06:49.097Z,100498.56
2019-05-02T19:09:25.006Z,100494.66
2019-05-02T19:12:04.964Z,100501.70
2019-05-02T19:14:28.228Z,100497.82
2019-05-02T19:17:07.289Z,100490.16
2019-05-02T19:19:38.898Z,100497.79
2019-05-02T19:22:13.216Z,100504.64
2019-05-02T19:24:42.434Z,100504.20
2019-05-02T19:27:14.279Z,100505.84
2019-05-02T19:29:49.480Z,100505.98
2019-05-02T19:32:26.954Z,100508.31
2019-05-02T19:34:57.820Z,100506.78
2019-05-02T19:37:31.630Z,100501.34
2019-05-02T19:40:03.085Z,100508.02
2019-05-02T19:42:35.075Z,100503.84
2019-05-02T19:45:11.484Z,100508.14
2019-05-02T19:47:39.488Z,100503.50
2019-05-02T19:50:41.461Z,100510.17
2019-05-02T19:53:14.858Z,100513.95
2019-05-02T19:55:43.874Z,100511.73
2019-05-02T19:58:15.126Z,100517.48
2019-05-02T20:00:46.649Z,100508.84
2019-05-02T20:03:22.024Z,100510.71
2019-05-02T20:05:56.682Z,100517.56
2019-05-02T20:08:28.281Z,100517.56
2019-05-02T20:10:58.644Z,100514.48
2019-05-02T20:13:32.354Z,100518.26
2019-05-02T20:16:11.989Z,100519.38
2019-05-02T20:18:46.983Z,100514.42
2019-05-02T20:21:27.893Z,100506.98
2019-05-02T20:23:57.798Z,100509.02
2019-05-02T20:26:29.823Z,100508.20
2019-05-02T20:29:02.071Z,100509.94
2019-05-02T20:31:33.225Z,100507.67
2019-05-02T20:34:04.557Z,100510.22
2019-05-02T20:36:37.278Z,100507.44
2019-05-02T20:39:11.769Z,100508.31
2019-05-02T20:41:42.831Z,100508.22
2019-05-02T20:44:14.330Z,100514.94
2019-05-02T20:46:46.755Z,100507.03
2019-05-02T20:49:17.984Z,100510.45
2019-05-02T20:51:48.297Z,100517.08
2019-05-02T20:54:19.205Z,100514.57
2019-05-02T20:56:49.430Z,100517.23
2019-05-02T20:59:21.707Z,100516.77
2019-05-02T21:01:53.850Z,100518.81
2019-05-02T21:04:32.080Z,100513.35
2019-05-02T21:07:16.194Z,100516.94
2019-05-02T21:09:52.564Z,100523.06
2019-05-02T21:12:22.834Z,100523.48
2019-05-02T21:14:55.296Z,100523.84
2019-05-02T21:17:30.157Z,100528.98
2019-05-02T21:20:01.944Z,100524.23
2019-05-02T21:22:33.350Z,100522.56
2019-05-02T21:25:03.986Z,100524.13
2019-05-02T21:27:34.662Z,100527.75
2019-05-02T21:30:07.011Z,100532.86
2019-05-02T21:32:39.299Z,100535.49
2019-05-02T21:35:11.911Z,100537.64
2019-05-02T21:37:42.551Z,100548.00
2019-05-02T21:40:17.139Z,100542.45
2019-05-02T21:42:48.655Z,100545.48
2019-05-02T21:45:22.156Z,100543.25
2019-05-02T21:47:54.010Z,100546.64
2019-05-02T21:50:39.731Z,100549.56
2019-05-02T21:53:38.725Z,100552.85
2019-05-02T21:56:18.863Z,100560.88
2019-05-02T21:59:05.593Z,100554.77
2019-05-02T22:01:44.993Z,100562.30
2019-05-02T22:04:19.282Z,100566.56
2019-05-02T22:06:54.135Z,100569.55
2019-05-02T22:09:26.505Z,100570.77
2019-05-02T22:11:57.835Z,100577.55
2019-05-02T22:14:28.653Z,100567.44
2019-05-02T22:17:02.339Z,100571.55
2019-05-02T22:19:35.656Z,100573.60
2019-05-02T22:22:07.252Z,100577.70
2019-05-02T22:24:39.756Z,100579.59
2019-05-02T22:27:12.381Z,100581.84
2019-05-02T22:29:43.227Z,100579.67
2019-05-02T22:32:15.169Z,100583.09
2019-05-02T22:34:49.341Z,100581.30
2019-05-02T22:37:24.967Z,100585.70
2019-05-02T22:40:03.664Z,100587.83
2019-05-02T22:42:33.399Z,100587.97
2019-05-02T22:45:05.268Z,100594.03
2019-05-02T22:47:38.742Z,100596.05
2019-05-02T22:50:09.701Z,100600.72
2019-05-02T22:52:41.565Z,100602.16
2019-05-02T22:55:12.285Z,100593.44
2019-05-02T22:57:43.965Z,100605.23
2019-05-02T23:00:16.304Z,100603.98
2019-05-02T23:02:47.341Z,100605.81
2019-05-02T23:05:20.748Z,100606.98
2019-05-02T23:07:52.705Z,100613.31
2019-05-02T23:10:27.704Z,100603.20
2019-05-02T23:13:02.312Z,100606.55
2019-05-02T23:15:33.171Z,100606.88
2019-05-02T23:18:04.779Z,100610.69
2019-05-02T23:20:42.188Z,100620.45
2019-05-02T23:23:16.271Z,100613.41
2019-05-02T23:26:08.343Z,100619.04
2019-05-02T23:28:42.809Z,100617.11
2019-05-02T23:31:14.217Z,100613.53
2019-05-02T23:34:02.075Z,100622.84
2019-05-02T23:36:34.353Z,100624.59
2019-05-02T23:39:08.078Z,100620.23
2019-05-02T23:41:42.075Z,100622.66
2019-05-02T23:44:13.879Z,100622.75
2019-05-02T23:46:44.432Z,100623.67
2019-05-02T23:49:15.858Z,100621.84
2019-05-02T23:51:49.295Z,100618.81
2019-05-02T23:54:21.904Z,100621.16
2019-05-02T23:56:52.426Z,100620.33
2019-05-02T23:59:23.562Z,100622.84
